GVAC/SID METAR and TAF weather

Enter ICAO airport designator
Station Type Date Time Source
GVAC METAR 2019/02/20 23:00 UTC NOAA

GVAC 202300Z 06010KT 9999 FEW014 20/16 Q1016 NOSIG


Station Type Date Time Source
GVAC Decoded METAR 2019/02/20 23:00 UTC NOAA

Sal, Cape Verde (GVAC) 16-44N 022-57W 55M
Feb 20, 2019 - 06:00 PM EST / 2019.02.20 2300 UTC
Wind: from the ENE (060 degrees) at 12 MPH (10 KT):0
Visibility: greater than 7 mile(s):0
Sky conditions: mostly clear
Temperature: 68 F (20 C)
Dew Point: 60 F (16 C)
Relative Humidity: 77%
Pressure (altimeter): 30.00 in. Hg (1016 hPa)
ob: GVAC 202300Z 06010KT 9999 FEW014 20/16 Q1016 NOSIG
cycle: 23

Station Type Date Time Source
GVAC TAF 2019/02/20 18:54 UTC NOAA

TAF GVAC 201700Z 2018/2124 05010KT 9999 FEW014


Example: see airport list